OPPS

Peshawar International Airport

Peshawar, Pakistan
TAF OPPS 212130Z 2200/2306 21010KT 4000 HZ FEW040 BKN100 TEMPO 2202/2206 2000 BR TEMPO 2208/2212 SCT040 SCT100 TEMPO 2218/2222 VCTS FEW030TCU/CB SCT040 BKN100 TEMPO 2222/2302 RA SCT040 BKN100 TEMPO 2302/2306 DZ FEW015 SCT040 BKN100
Issued Valid From Valid To
Jan-21 @ 21:30 UTC
(3 hours ago)
Jan-22 @ 00:00 UTC
(49 minutes ago)
Jan-23 @ 06:00 UTC
(-1 days ago)
Jan-22 @ 00:00 to Jan-23 @ 06:00
TAF OPPS 212130Z 2200/2306 21010KT 4000 HZ FEW040 BKN100
Wind Visibility Clouds Conditions
210° at 10 knots 4,007 meters
  • Few at 4,000' AGL
  • Broken at 10,000' AGL
  • Haze
Temporary Jan-22 @ 02:00 to Jan-22 @ 06:00
TEMPO 2202/2206 2000 BR
Visibility Conditions
1,996 meters
  • Mist
Temporary Jan-22 @ 08:00 to Jan-22 @ 12:00
TEMPO 2208/2212 SCT040 SCT100
Clouds
  • Scattered at 4,000' AGL
  • Scattered at 10,000' AGL
Temporary Jan-22 @ 18:00 to Jan-22 @ 22:00
TEMPO 2218/2222 VCTS FEW030TCU/CB SCT040 BKN100
Clouds Conditions
  • Scattered at 4,000' AGL
  • Broken at 10,000' AGL
  • Area Thunderstorm
Temporary Jan-22 @ 22:00 to Jan-23 @ 02:00
TEMPO 2222/2302 RA SCT040 BKN100
Clouds Conditions
  • Scattered at 4,000' AGL
  • Broken at 10,000' AGL
  • Rain
Temporary Jan-23 @ 02:00 to Jan-23 @ 06:00
TEMPO 2302/2306 DZ FEW015 SCT040 BKN100
Clouds Conditions
  • Few at 1,500' AGL
  • Scattered at 4,000' AGL
  • Broken at 10,000' AGL
  • Drizzle
TAF OPPS 212130Z 2200/2306 21010KT 4000 HZ FEW040 BKN100 TEMPO 2202/2206 2000 BR TEMPO 2208/2212 SCT040 SCT100 TEMPO 2218/2222 VCTS FEW030TCU/CB SCT040 BKN100 TEMPO 2222/2302 RA SCT040 BKN100 TEMPO 2302/2306 DZ FEW015 SCT040 BKN100
Issued Jan-21 @ 21:30 UTC
(3 hours ago)
Valid From Jan-22 @ 00:00 UTC
(49 minutes ago)
Valid To Jan-23 @ 06:00 UTC
(-1 days ago)
Jan-22 @ 00:00 - Jan-23 @ 06:00
Wind Visibility
210° at 10 knots 4,007 meters
Clouds
  • Few at 4,000' AGL
  • Broken at 10,000' AGL
Conditions
  • Haze
Temporary Jan-22 @ 02:00 - Jan-22 @ 06:00
Conditions
  • Mist
Temporary Jan-22 @ 08:00 - Jan-22 @ 12:00
Clouds
  • Scattered at 4,000' AGL
  • Scattered at 10,000' AGL
Temporary Jan-22 @ 18:00 - Jan-22 @ 22:00
Clouds
  • Scattered at 4,000' AGL
  • Broken at 10,000' AGL
Conditions
  • Area Thunderstorm
Temporary Jan-22 @ 22:00 - Jan-23 @ 02:00
Clouds
  • Scattered at 4,000' AGL
  • Broken at 10,000' AGL
Conditions
  • Rain
Temporary Jan-23 @ 02:00 - Jan-23 @ 06:00
Clouds
  • Few at 1,500' AGL
  • Scattered at 4,000' AGL
  • Broken at 10,000' AGL
Conditions
  • Drizzle